createdAt,value
2022-10-31T00:02:12.983Z,102079.06
2022-10-31T00:07:15.982Z,102076.16
2022-10-31T00:12:20.351Z,102078.72
2022-10-31T00:17:23.361Z,102065.47
2022-10-31T00:22:27.241Z,102087.53
2022-10-31T00:27:31.775Z,102089.34
2022-10-31T00:33:14.583Z,102102.53
2022-10-31T00:38:35.903Z,102098.94
2022-10-31T00:43:40.634Z,102096.16
2022-10-31T00:48:43.792Z,102094.00
2022-10-31T00:53:46.849Z,102093.63
2022-10-31T00:58:51.426Z,102089.72
2022-10-31T01:03:54.537Z,102076.97
2022-10-31T01:08:57.729Z,102058.22
2022-10-31T01:14:02.116Z,102072.44
2022-10-31T01:19:07.922Z,102071.78
2022-10-31T01:24:11.097Z,102065.13
2022-10-31T01:29:16.403Z,102063.44
2022-10-31T01:34:20.067Z,102068.00
2022-10-31T01:39:23.040Z,102068.41
2022-10-31T01:44:54.541Z,102062.66
2022-10-31T01:50:02.057Z,102050.53
2022-10-31T01:55:08.659Z,102058.16
2022-10-31T02:00:15.184Z,102052.47
2022-10-31T02:05:20.756Z,102049.53
2022-10-31T02:10:25.281Z,102050.13
2022-10-31T02:15:30.815Z,102047.09
2022-10-31T02:20:39.430Z,102056.72
2022-10-31T02:25:57.879Z,102054.75
2022-10-31T02:31:20.259Z,102051.66
2022-10-31T02:36:29.632Z,102061.53
2022-10-31T02:41:39.846Z,102055.41
2022-10-31T02:46:52.024Z,102045.81
2022-10-31T02:51:55.477Z,102057.13
2022-10-31T02:57:02.996Z,102057.72
2022-10-31T03:02:27.746Z,102054.84
2022-10-31T03:07:41.255Z,102065.16
2022-10-31T03:12:51.995Z,102058.88
2022-10-31T03:18:01.555Z,102057.84
2022-10-31T03:23:07.798Z,102047.78
2022-10-31T03:28:14.984Z,102059.31
2022-10-31T03:33:26.762Z,102058.25
2022-10-31T03:38:31.544Z,102059.00
2022-10-31T03:43:40.517Z,102056.03
2022-10-31T03:48:44.855Z,102064.66
2022-10-31T03:53:52.980Z,102065.41
2022-10-31T03:59:03.804Z,102068.78
2022-10-31T04:04:09.382Z,102060.44
2022-10-31T04:09:13.139Z,102063.81
2022-10-31T04:14:16.404Z,102073.16
2022-10-31T04:19:21.147Z,102059.78
2022-10-31T04:24:24.407Z,102056.06
2022-10-31T04:29:27.524Z,102053.34
2022-10-31T04:34:31.922Z,102058.47
2022-10-31T04:39:34.980Z,102052.13
2022-10-31T04:45:01.051Z,102047.63
2022-10-31T04:50:06.649Z,102049.88
2022-10-31T04:55:13.534Z,102046.09
2022-10-31T05:00:28.839Z,102050.09
2022-10-31T05:05:33.801Z,102038.44
2022-10-31T05:10:39.876Z,102033.91
2022-10-31T05:15:43.150Z,102034.56
2022-10-31T05:21:07.491Z,102027.56
2022-10-31T05:26:12.014Z,102035.56
2022-10-31T05:31:16.122Z,102032.75
2022-10-31T05:36:20.739Z,102019.25
2022-10-31T05:41:33.962Z,102019.09
2022-10-31T05:47:00.002Z,102013.59
2022-10-31T05:52:23.298Z,102012.66
2022-10-31T05:57:34.398Z,102013.47
2022-10-31T06:02:37.591Z,102007.34
2022-10-31T06:08:17.021Z,102005.28
2022-10-31T06:13:20.979Z,102019.56
2022-10-31T06:18:36.322Z,102022.91
2022-10-31T06:23:41.535Z,102020.56
2022-10-31T06:29:13.919Z,102028.84
2022-10-31T06:34:52.344Z,102018.72
2022-10-31T06:39:56.772Z,102027.94
2022-10-31T06:45:00.110Z,102022.13
2022-10-31T06:50:22.281Z,102021.19
2022-10-31T06:55:28.162Z,102026.06
2022-10-31T07:00:32.347Z,102023.72
2022-10-31T07:05:42.027Z,102031.03
2022-10-31T07:10:53.846Z,102028.59
2022-10-31T07:16:03.319Z,102034.16
2022-10-31T07:21:08.795Z,102034.53
2022-10-31T07:26:13.401Z,102039.41
2022-10-31T07:31:21.142Z,102041.63
2022-10-31T07:36:24.288Z,102030.72
2022-10-31T07:41:30.647Z,102044.69
2022-10-31T07:46:34.256Z,102038.34
2022-10-31T07:51:37.223Z,102038.84
2022-10-31T07:57:01.864Z,102046.72
2022-10-31T08:02:05.823Z,102039.91
2022-10-31T08:07:08.901Z,102045.97
2022-10-31T08:12:15.306Z,102047.56
2022-10-31T08:17:18.463Z,102043.88
2022-10-31T08:22:32.460Z,102048.84
2022-10-31T08:27:38.090Z,102036.06
2022-10-31T08:32:41.314Z,102026.94
2022-10-31T08:38:03.996Z,102035.66
2022-10-31T08:43:12.766Z,102029.06
2022-10-31T08:48:17.463Z,102030.75
2022-10-31T08:53:21.532Z,102017.03
2022-10-31T08:58:40.062Z,102014.09
2022-10-31T09:03:45.295Z,101995.28
2022-10-31T09:08:48.593Z,101991.53
2022-10-31T09:13:55.626Z,101992.09
2022-10-31T09:19:37.415Z,101996.22
2022-10-31T09:24:42.174Z,101988.88
2022-10-31T09:29:46.823Z,101973.00
2022-10-31T09:34:50.204Z,101961.22
2022-10-31T09:39:56.510Z,101965.88
2022-10-31T09:45:20.602Z,101938.59
2022-10-31T09:50:27.934Z,101931.06
2022-10-31T09:55:39.347Z,101938.78
2022-10-31T10:00:45.582Z,101932.31
2022-10-31T10:05:56.515Z,101925.63
2022-10-31T10:11:27.223Z,101923.28
2022-10-31T10:16:51.847Z,101917.44
2022-10-31T10:22:03.281Z,101893.72
2022-10-31T10:27:22.192Z,101906.88
2022-10-31T10:32:30.839Z,101885.16
2022-10-31T10:37:38.365Z,101885.44
2022-10-31T10:42:59.060Z,101875.25
2022-10-31T10:48:11.060Z,101867.66
2022-10-31T10:53:33.155Z,101877.56
2022-10-31T10:58:37.762Z,101881.22
2022-10-31T11:03:42.806Z,101868.00
2022-10-31T11:08:45.883Z,101858.44
2022-10-31T11:13:52.458Z,101839.88
2022-10-31T11:19:10.010Z,101841.56
2022-10-31T11:24:18.099Z,101792.56
2022-10-31T11:29:25.819Z,101784.78
2022-10-31T11:34:35.333Z,101778.84
2022-10-31T11:39:44.384Z,101776.97
2022-10-31T11:44:47.465Z,101771.91
2022-10-31T11:49:52.208Z,101756.56
2022-10-31T11:54:57.296Z,101757.75
2022-10-31T12:00:04.404Z,101738.53
2022-10-31T12:05:21.072Z,101726.31
2022-10-31T12:10:34.014Z,101725.25
2022-10-31T12:15:56.258Z,101692.97
2022-10-31T12:21:17.719Z,101693.53
2022-10-31T12:26:28.270Z,101690.19
2022-10-31T12:31:46.052Z,101653.91
2022-10-31T12:36:59.009Z,101668.09
2022-10-31T12:42:12.737Z,101633.53
2022-10-31T12:47:36.490Z,101636.31
2022-10-31T12:53:06.274Z,101629.25
2022-10-31T12:58:16.662Z,101608.88
2022-10-31T13:03:28.740Z,101593.94
2022-10-31T13:08:49.889Z,101577.22
2022-10-31T13:14:00.603Z,101584.44
2022-10-31T13:19:08.295Z,101559.56
2022-10-31T13:24:18.654Z,101551.66
2022-10-31T13:29:31.458Z,101531.31
2022-10-31T13:34:40.693Z,101513.63
2022-10-31T13:40:07.260Z,101511.03
2022-10-31T13:45:18.374Z,101503.97
2022-10-31T13:50:24.051Z,101506.63
2022-10-31T13:55:44.208Z,101491.56
2022-10-31T14:00:47.662Z,101480.03
2022-10-31T14:05:55.690Z,101469.31
2022-10-31T14:11:00.175Z,101459.53
2022-10-31T14:16:06.100Z,101447.91
2022-10-31T14:21:17.591Z,101439.00
2022-10-31T14:26:33.608Z,101428.38
2022-10-31T14:31:39.160Z,101412.34
2022-10-31T14:36:51.275Z,101418.47
2022-10-31T14:42:21.910Z,101414.09
2022-10-31T14:47:38.072Z,101412.28
2022-10-31T14:52:43.180Z,101401.81
2022-10-31T14:57:51.763Z,101401.81
2022-10-31T15:03:06.799Z,101391.16
2022-10-31T15:08:27.789Z,101379.69
2022-10-31T15:13:32.182Z,101367.25
2022-10-31T15:18:35.404Z,101352.97
2022-10-31T15:23:38.562Z,101341.38
2022-10-31T15:28:42.962Z,101334.03
2022-10-31T15:33:50.649Z,101322.34
2022-10-31T15:38:54.159Z,101315.00
2022-10-31T15:44:03.756Z,101307.66
2022-10-31T15:49:20.917Z,101307.34
2022-10-31T15:54:24.258Z,101305.44
2022-10-31T15:59:31.244Z,101311.38
2022-10-31T16:04:34.309Z,101305.03
2022-10-31T16:09:37.274Z,101286.19
2022-10-31T16:14:42.661Z,101276.16
2022-10-31T16:19:53.322Z,101278.66
2022-10-31T16:25:03.467Z,101260.03
2022-10-31T16:30:32.586Z,101259.84
2022-10-31T16:35:37.243Z,101260.47
2022-10-31T16:40:40.955Z,101255.84
2022-10-31T16:45:48.056Z,101261.81
2022-10-31T16:50:52.181Z,101243.06
2022-10-31T16:55:58.643Z,101235.72
2022-10-31T17:01:04.625Z,101232.88
2022-10-31T17:06:07.905Z,101231.88
2022-10-31T17:11:17.243Z,101224.59
2022-10-31T17:16:21.758Z,101210.31
2022-10-31T17:21:28.063Z,101216.19
2022-10-31T17:26:31.485Z,101198.38
2022-10-31T17:31:39.209Z,101187.66
2022-10-31T17:36:42.359Z,101168.06
2022-10-31T17:41:45.448Z,101151.97
2022-10-31T17:46:51.504Z,101164.19
2022-10-31T17:51:54.485Z,101164.09
2022-10-31T17:56:57.493Z,101173.84
2022-10-31T18:02:03.065Z,101173.94
2022-10-31T18:07:06.886Z,101168.88
2022-10-31T18:12:09.929Z,101152.13
2022-10-31T18:17:14.750Z,101142.34
2022-10-31T18:22:17.734Z,101135.25
2022-10-31T18:27:20.876Z,101111.44
2022-10-31T18:32:25.319Z,101121.94
2022-10-31T18:37:28.877Z,101128.97
2022-10-31T18:42:32.050Z,101128.78
2022-10-31T18:47:36.611Z,101129.56
2022-10-31T18:52:40.331Z,101131.28
2022-10-31T18:57:43.342Z,101129.47
2022-10-31T19:02:48.442Z,101105.59
2022-10-31T19:07:51.463Z,101116.16
2022-10-31T19:12:54.497Z,101110.81
2022-10-31T19:17:59.046Z,101102.88
2022-10-31T19:23:02.847Z,101085.13
2022-10-31T19:28:06.320Z,101085.16
2022-10-31T19:33:11.208Z,101085.28
2022-10-31T19:38:14.453Z,101080.88
2022-10-31T19:43:17.511Z,101069.38
2022-10-31T19:48:21.892Z,101079.84
2022-10-31T19:53:25.174Z,101070.13
2022-10-31T19:58:29.062Z,101058.66
2022-10-31T20:03:34.526Z,101052.53
2022-10-31T20:08:39.520Z,101047.22
2022-10-31T20:13:42.811Z,101041.09
2022-10-31T20:18:47.762Z,101048.97
2022-10-31T22:03:42.641Z,100948.88
2022-10-31T22:08:46.007Z,100954.38
2022-10-31T22:13:51.178Z,100950.06
2022-10-31T22:18:57.391Z,100958.91
2022-10-31T22:24:04.878Z,100944.19
2022-10-31T22:29:13.459Z,100926.31
2022-10-31T22:34:18.957Z,100909.34
2022-10-31T22:39:22.276Z,100913.84
2022-10-31T22:44:25.251Z,100901.47
2022-10-31T22:49:29.923Z,100890.91
2022-10-31T22:54:32.890Z,100886.53
2022-10-31T22:59:36.001Z,100875.06
2022-10-31T23:04:40.295Z,100871.53
2022-10-31T23:09:43.471Z,100856.50
2022-10-31T23:14:46.509Z,100857.38
2022-10-31T23:19:50.825Z,100867.97
2022-10-31T23:24:53.718Z,100858.31
2022-10-31T23:29:58.399Z,100843.38
2022-10-31T23:35:06.153Z,100836.25
2022-10-31T23:40:10.249Z,100817.88
2022-10-31T23:45:13.564Z,100817.88
2022-10-31T23:50:18.110Z,100837.34
2022-10-31T23:55:21.025Z,100823.34
